sensor_id;sensor_type;location;lat;lon;timestamp;P1;durP1;ratioP1;P2;durP2;ratioP2
55575;SDS011;41437;45.478;9.116;2022-10-16T00:01:55;81.82;;;49.28;;
55575;SDS011;41437;45.478;9.116;2022-10-16T00:04:57;78.18;;;48.40;;
55575;SDS011;41437;45.478;9.116;2022-10-16T00:08:01;78.70;;;48.38;;
55575;SDS011;41437;45.478;9.116;2022-10-16T00:11:04;72.28;;;45.60;;
55575;SDS011;41437;45.478;9.116;2022-10-16T00:14:08;82.30;;;49.45;;
55575;SDS011;41437;45.478;9.116;2022-10-16T00:17:11;83.25;;;49.40;;
55575;SDS011;41437;45.478;9.116;2022-10-16T00:20:13;82.28;;;48.60;;
55575;SDS011;41437;45.478;9.116;2022-10-16T00:23:16;77.35;;;49.08;;
55575;SDS011;41437;45.478;9.116;2022-10-16T00:26:18;78.07;;;49.17;;
55575;SDS011;41437;45.478;9.116;2022-10-16T00:29:20;83.70;;;50.88;;
55575;SDS011;41437;45.478;9.116;2022-10-16T00:32:21;76.25;;;46.67;;
55575;SDS011;41437;45.478;9.116;2022-10-16T00:35:23;80.82;;;49.40;;
55575;SDS011;41437;45.478;9.116;2022-10-16T00:38:26;70.20;;;43.45;;
55575;SDS011;41437;45.478;9.116;2022-10-16T00:41:28;75.13;;;47.75;;
55575;SDS011;41437;45.478;9.116;2022-10-16T00:44:44;86.72;;;49.85;;
55575;SDS011;41437;45.478;9.116;2022-10-16T00:47:49;76.30;;;47.92;;
55575;SDS011;41437;45.478;9.116;2022-10-16T00:50:55;83.05;;;49.22;;
55575;SDS011;41437;45.478;9.116;2022-10-16T00:53:59;80.13;;;49.93;;
55575;SDS011;41437;45.478;9.116;2022-10-16T00:57:02;72.05;;;46.28;;
55575;SDS011;41437;45.478;9.116;2022-10-16T01:00:07;74.95;;;48.42;;
55575;SDS011;41437;45.478;9.116;2022-10-16T01:03:22;77.03;;;49.17;;
55575;SDS011;41437;45.478;9.116;2022-10-16T01:06:28;74.35;;;47.85;;
55575;SDS011;41437;45.478;9.116;2022-10-16T01:09:43;69.67;;;46.50;;
55575;SDS011;41437;45.478;9.116;2022-10-16T01:12:56;73.53;;;46.78;;
55575;SDS011;41437;45.478;9.116;2022-10-16T01:16:03;67.05;;;44.42;;
55575;SDS011;41437;45.478;9.116;2022-10-16T01:19:12;79.95;;;49.33;;
55575;SDS011;41437;45.478;9.116;2022-10-16T01:22:18;75.15;;;47.65;;
55575;SDS011;41437;45.478;9.116;2022-10-16T01:25:25;79.70;;;49.25;;
55575;SDS011;41437;45.478;9.116;2022-10-16T01:28:40;70.95;;;45.38;;
55575;SDS011;41437;45.478;9.116;2022-10-16T01:31:47;67.18;;;45.83;;
55575;SDS011;41437;45.478;9.116;2022-10-16T01:34:54;74.13;;;46.28;;
55575;SDS011;41437;45.478;9.116;2022-10-16T01:38:01;74.50;;;46.40;;
55575;SDS011;41437;45.478;9.116;2022-10-16T01:41:08;79.15;;;49.25;;
55575;SDS011;41437;45.478;9.116;2022-10-16T01:44:14;73.03;;;44.72;;
55575;SDS011;41437;45.478;9.116;2022-10-16T01:47:20;76.47;;;47.28;;
55575;SDS011;41437;45.478;9.116;2022-10-16T01:50:24;78.07;;;49.40;;
55575;SDS011;41437;45.478;9.116;2022-10-16T01:53:28;76.53;;;48.20;;
55575;SDS011;41437;45.478;9.116;2022-10-16T01:56:31;69.88;;;45.20;;
55575;SDS011;41437;45.478;9.116;2022-10-16T01:59:37;76.85;;;46.65;;
55575;SDS011;41437;45.478;9.116;2022-10-16T02:02:44;80.85;;;48.60;;
55575;SDS011;41437;45.478;9.116;2022-10-16T02:05:50;81.05;;;49.22;;
55575;SDS011;41437;45.478;9.116;2022-10-16T02:08:55;78.10;;;49.83;;
55575;SDS011;41437;45.478;9.116;2022-10-16T02:11:57;78.15;;;51.83;;
55575;SDS011;41437;45.478;9.116;2022-10-16T02:15:05;81.72;;;49.20;;
55575;SDS011;41437;45.478;9.116;2022-10-16T02:21:12;71.38;;;44.58;;
55575;SDS011;41437;45.478;9.116;2022-10-16T02:24:19;77.32;;;45.95;;
55575;SDS011;41437;45.478;9.116;2022-10-16T02:27:32;73.85;;;46.22;;
55575;SDS011;41437;45.478;9.116;2022-10-16T02:30:38;74.25;;;47.25;;
55575;SDS011;41437;45.478;9.116;2022-10-16T02:33:43;74.47;;;46.03;;
55575;SDS011;41437;45.478;9.116;2022-10-16T02:39:49;71.38;;;44.67;;
55575;SDS011;41437;45.478;9.116;2022-10-16T02:42:52;73.28;;;47.65;;
55575;SDS011;41437;45.478;9.116;2022-10-16T02:45:56;72.00;;;46.78;;
55575;SDS011;41437;45.478;9.116;2022-10-16T02:48:57;69.20;;;44.57;;
55575;SDS011;41437;45.478;9.116;2022-10-16T02:51:59;71.15;;;46.60;;
55575;SDS011;41437;45.478;9.116;2022-10-16T02:55:01;78.57;;;47.72;;
55575;SDS011;41437;45.478;9.116;2022-10-16T02:58:03;70.78;;;46.10;;
55575;SDS011;41437;45.478;9.116;2022-10-16T03:01:06;70.55;;;46.83;;
55575;SDS011;41437;45.478;9.116;2022-10-16T03:04:08;71.65;;;46.20;;
55575;SDS011;41437;45.478;9.116;2022-10-16T03:07:09;63.80;;;42.30;;
55575;SDS011;41437;45.478;9.116;2022-10-16T03:10:11;68.60;;;44.78;;
55575;SDS011;41437;45.478;9.116;2022-10-16T03:13:13;68.35;;;43.08;;
55575;SDS011;41437;45.478;9.116;2022-10-16T03:16:16;70.78;;;44.88;;
55575;SDS011;41437;45.478;9.116;2022-10-16T03:19:17;71.65;;;45.33;;
55575;SDS011;41437;45.478;9.116;2022-10-16T03:22:20;68.95;;;44.47;;
55575;SDS011;41437;45.478;9.116;2022-10-16T03:25:22;62.67;;;41.47;;
55575;SDS011;41437;45.478;9.116;2022-10-16T03:28:23;64.25;;;41.65;;
55575;SDS011;41437;45.478;9.116;2022-10-16T03:31:27;62.03;;;41.38;;
55575;SDS011;41437;45.478;9.116;2022-10-16T03:34:28;60.22;;;40.72;;
55575;SDS011;41437;45.478;9.116;2022-10-16T03:37:30;60.40;;;40.03;;
55575;SDS011;41437;45.478;9.116;2022-10-16T03:40:32;58.25;;;38.50;;
55575;SDS011;41437;45.478;9.116;2022-10-16T03:43:33;57.17;;;38.35;;
55575;SDS011;41437;45.478;9.116;2022-10-16T03:46:37;68.05;;;43.97;;
55575;SDS011;41437;45.478;9.116;2022-10-16T03:49:39;62.25;;;43.15;;
55575;SDS011;41437;45.478;9.116;2022-10-16T03:52:40;57.30;;;39.10;;
55575;SDS011;41437;45.478;9.116;2022-10-16T03:55:42;60.63;;;39.65;;
55575;SDS011;41437;45.478;9.116;2022-10-16T03:58:44;57.05;;;39.40;;
55575;SDS011;41437;45.478;9.116;2022-10-16T04:01:47;59.58;;;40.35;;
55575;SDS011;41437;45.478;9.116;2022-10-16T04:04:49;60.30;;;39.83;;
55575;SDS011;41437;45.478;9.116;2022-10-16T04:07:51;54.90;;;38.75;;
55575;SDS011;41437;45.478;9.116;2022-10-16T04:10:53;58.83;;;40.03;;
55575;SDS011;41437;45.478;9.116;2022-10-16T04:13:55;60.47;;;39.50;;
55575;SDS011;41437;45.478;9.116;2022-10-16T04:16:58;61.97;;;40.83;;
55575;SDS011;41437;45.478;9.116;2022-10-16T04:20:00;54.13;;;38.13;;
55575;SDS011;41437;45.478;9.116;2022-10-16T04:23:01;54.63;;;36.78;;
55575;SDS011;41437;45.478;9.116;2022-10-16T04:26:04;52.47;;;36.38;;
55575;SDS011;41437;45.478;9.116;2022-10-16T04:29:05;56.63;;;38.58;;
55575;SDS011;41437;45.478;9.116;2022-10-16T04:32:09;51.60;;;36.38;;
55575;SDS011;41437;45.478;9.116;2022-10-16T04:35:10;53.05;;;36.50;;
55575;SDS011;41437;45.478;9.116;2022-10-16T04:38:12;51.60;;;36.35;;
55575;SDS011;41437;45.478;9.116;2022-10-16T04:41:14;49.38;;;34.88;;
55575;SDS011;41437;45.478;9.116;2022-10-16T04:44:15;52.30;;;36.15;;
55575;SDS011;41437;45.478;9.116;2022-10-16T04:47:18;51.58;;;35.78;;
55575;SDS011;41437;45.478;9.116;2022-10-16T04:50:20;54.05;;;37.13;;
55575;SDS011;41437;45.478;9.116;2022-10-16T04:53:22;51.67;;;36.42;;
55575;SDS011;41437;45.478;9.116;2022-10-16T04:56:23;50.03;;;34.42;;
55575;SDS011;41437;45.478;9.116;2022-10-16T04:59:25;46.67;;;33.13;;
55575;SDS011;41437;45.478;9.116;2022-10-16T05:02:28;52.30;;;34.15;;
55575;SDS011;41437;45.478;9.116;2022-10-16T05:05:30;52.80;;;35.47;;
55575;SDS011;41437;45.478;9.116;2022-10-16T05:08:31;49.03;;;34.28;;
55575;SDS011;41437;45.478;9.116;2022-10-16T05:11:33;50.55;;;34.35;;
55575;SDS011;41437;45.478;9.116;2022-10-16T05:14:35;47.80;;;33.13;;
55575;SDS011;41437;45.478;9.116;2022-10-16T05:17:38;48.67;;;33.85;;
55575;SDS011;41437;45.478;9.116;2022-10-16T05:20:40;49.73;;;35.70;;
55575;SDS011;41437;45.478;9.116;2022-10-16T05:23:42;50.40;;;35.17;;
55575;SDS011;41437;45.478;9.116;2022-10-16T05:26:44;50.30;;;35.15;;
55575;SDS011;41437;45.478;9.116;2022-10-16T05:29:46;46.75;;;34.05;;
55575;SDS011;41437;45.478;9.116;2022-10-16T05:32:50;52.23;;;34.50;;
55575;SDS011;41437;45.478;9.116;2022-10-16T05:35:52;45.88;;;32.97;;
55575;SDS011;41437;45.478;9.116;2022-10-16T05:38:54;46.38;;;33.03;;
55575;SDS011;41437;45.478;9.116;2022-10-16T05:41:56;46.08;;;33.05;;
55575;SDS011;41437;45.478;9.116;2022-10-16T05:44:58;47.72;;;32.70;;
55575;SDS011;41437;45.478;9.116;2022-10-16T05:48:02;43.88;;;31.17;;
55575;SDS011;41437;45.478;9.116;2022-10-16T05:51:05;44.22;;;32.00;;
55575;SDS011;41437;45.478;9.116;2022-10-16T05:54:08;42.72;;;31.25;;
55575;SDS011;41437;45.478;9.116;2022-10-16T05:57:10;40.60;;;29.35;;
55575;SDS011;41437;45.478;9.116;2022-10-16T06:00:12;47.35;;;31.90;;
55575;SDS011;41437;45.478;9.116;2022-10-16T06:03:15;40.50;;;30.88;;
55575;SDS011;41437;45.478;9.116;2022-10-16T06:06:17;42.90;;;30.80;;
55575;SDS011;41437;45.478;9.116;2022-10-16T06:09:20;42.17;;;30.63;;
55575;SDS011;41437;45.478;9.116;2022-10-16T06:12:22;43.67;;;31.25;;
55575;SDS011;41437;45.478;9.116;2022-10-16T06:15:23;43.70;;;31.60;;
55575;SDS011;41437;45.478;9.116;2022-10-16T06:18:27;42.08;;;30.33;;
55575;SDS011;41437;45.478;9.116;2022-10-16T06:21:29;42.72;;;30.75;;
55575;SDS011;41437;45.478;9.116;2022-10-16T06:24:31;44.00;;;29.60;;
55575;SDS011;41437;45.478;9.116;2022-10-16T06:27:32;38.83;;;29.25;;
55575;SDS011;41437;45.478;9.116;2022-10-16T06:30:34;40.70;;;28.58;;
55575;SDS011;41437;45.478;9.116;2022-10-16T06:33:37;42.78;;;30.48;;
55575;SDS011;41437;45.478;9.116;2022-10-16T06:36:39;42.90;;;29.42;;
55575;SDS011;41437;45.478;9.116;2022-10-16T06:39:43;45.28;;;30.20;;
55575;SDS011;41437;45.478;9.116;2022-10-16T06:42:45;44.38;;;29.73;;
55575;SDS011;41437;45.478;9.116;2022-10-16T06:45:49;43.90;;;30.33;;
55575;SDS011;41437;45.478;9.116;2022-10-16T06:48:59;43.17;;;29.55;;
55575;SDS011;41437;45.478;9.116;2022-10-16T06:52:01;41.33;;;28.65;;
55575;SDS011;41437;45.478;9.116;2022-10-16T06:55:04;40.53;;;29.02;;
55575;SDS011;41437;45.478;9.116;2022-10-16T06:58:06;37.33;;;28.27;;
55575;SDS011;41437;45.478;9.116;2022-10-16T07:01:08;39.05;;;28.13;;
55575;SDS011;41437;45.478;9.116;2022-10-16T07:04:12;40.93;;;28.57;;
55575;SDS011;41437;45.478;9.116;2022-10-16T07:07:14;41.45;;;30.27;;
55575;SDS011;41437;45.478;9.116;2022-10-16T07:10:15;41.20;;;29.45;;
55575;SDS011;41437;45.478;9.116;2022-10-16T07:13:17;40.97;;;29.55;;
55575;SDS011;41437;45.478;9.116;2022-10-16T07:16:19;40.45;;;29.02;;
55575;SDS011;41437;45.478;9.116;2022-10-16T07:19:24;38.17;;;27.95;;
55575;SDS011;41437;45.478;9.116;2022-10-16T07:22:27;41.42;;;27.42;;
55575;SDS011;41437;45.478;9.116;2022-10-16T07:25:29;37.83;;;27.27;;
55575;SDS011;41437;45.478;9.116;2022-10-16T07:28:31;44.35;;;31.33;;
55575;SDS011;41437;45.478;9.116;2022-10-16T07:31:33;42.10;;;29.77;;
55575;SDS011;41437;45.478;9.116;2022-10-16T07:34:36;44.08;;;29.65;;
55575;SDS011;41437;45.478;9.116;2022-10-16T07:37:38;41.90;;;29.35;;
55575;SDS011;41437;45.478;9.116;2022-10-16T07:40:40;42.88;;;30.05;;
55575;SDS011;41437;45.478;9.116;2022-10-16T07:43:44;40.17;;;29.48;;
55575;SDS011;41437;45.478;9.116;2022-10-16T07:46:49;44.67;;;29.67;;
55575;SDS011;41437;45.478;9.116;2022-10-16T07:49:52;44.08;;;30.85;;
55575;SDS011;41437;45.478;9.116;2022-10-16T07:52:54;41.88;;;31.05;;
55575;SDS011;41437;45.478;9.116;2022-10-16T07:55:56;46.50;;;31.77;;
55575;SDS011;41437;45.478;9.116;2022-10-16T07:58:59;40.53;;;29.45;;
55575;SDS011;41437;45.478;9.116;2022-10-16T08:02:01;43.60;;;33.03;;
55575;SDS011;41437;45.478;9.116;2022-10-16T08:05:07;47.05;;;30.83;;
55575;SDS011;41437;45.478;9.116;2022-10-16T08:08:11;45.95;;;31.30;;
55575;SDS011;41437;45.478;9.116;2022-10-16T08:11:14;51.33;;;32.58;;
55575;SDS011;41437;45.478;9.116;2022-10-16T08:14:16;49.78;;;31.73;;
55575;SDS011;41437;45.478;9.116;2022-10-16T08:17:17;44.85;;;31.00;;
55575;SDS011;41437;45.478;9.116;2022-10-16T08:20:21;49.95;;;33.55;;
55575;SDS011;41437;45.478;9.116;2022-10-16T08:23:23;44.55;;;30.77;;
55575;SDS011;41437;45.478;9.116;2022-10-16T08:26:26;43.25;;;32.88;;
55575;SDS011;41437;45.478;9.116;2022-10-16T08:29:28;48.25;;;33.55;;
55575;SDS011;41437;45.478;9.116;2022-10-16T08:32:30;47.22;;;33.47;;
55575;SDS011;41437;45.478;9.116;2022-10-16T08:35:33;52.67;;;33.90;;
55575;SDS011;41437;45.478;9.116;2022-10-16T08:38:35;46.80;;;34.20;;
55575;SDS011;41437;45.478;9.116;2022-10-16T08:45:26;49.88;;;34.63;;
55575;SDS011;41437;45.478;9.116;2022-10-16T08:48:37;54.05;;;36.92;;
55575;SDS011;41437;45.478;9.116;2022-10-16T08:51:47;51.92;;;34.53;;
55575;SDS011;41437;45.478;9.116;2022-10-16T08:54:51;55.50;;;37.97;;
55575;SDS011;41437;45.478;9.116;2022-10-16T08:57:56;57.25;;;38.65;;
55575;SDS011;41437;45.478;9.116;2022-10-16T09:01:00;57.65;;;38.40;;
55575;SDS011;41437;45.478;9.116;2022-10-16T09:07:46;64.85;;;40.92;;
55575;SDS011;41437;45.478;9.116;2022-10-16T09:10:56;64.22;;;38.45;;
55575;SDS011;41437;45.478;9.116;2022-10-16T09:14:01;64.22;;;39.67;;
55575;SDS011;41437;45.478;9.116;2022-10-16T09:17:14;57.28;;;38.47;;
55575;SDS011;41437;45.478;9.116;2022-10-16T09:20:33;61.67;;;38.20;;
55575;SDS011;41437;45.478;9.116;2022-10-16T09:23:41;61.05;;;38.47;;
55575;SDS011;41437;45.478;9.116;2022-10-16T09:26:43;60.40;;;36.80;;
55575;SDS011;41437;45.478;9.116;2022-10-16T09:29:45;61.95;;;38.78;;
55575;SDS011;41437;45.478;9.116;2022-10-16T09:32:48;65.10;;;37.28;;
55575;SDS011;41437;45.478;9.116;2022-10-16T09:35:54;59.67;;;39.22;;
55575;SDS011;41437;45.478;9.116;2022-10-16T09:39:04;56.33;;;34.05;;
55575;SDS011;41437;45.478;9.116;2022-10-16T09:42:07;60.80;;;38.50;;
55575;SDS011;41437;45.478;9.116;2022-10-16T09:45:19;59.90;;;37.67;;
55575;SDS011;41437;45.478;9.116;2022-10-16T09:48:23;57.60;;;39.30;;
55575;SDS011;41437;45.478;9.116;2022-10-16T09:51:28;53.55;;;35.40;;
55575;SDS011;41437;45.478;9.116;2022-10-16T09:57:34;60.92;;;39.05;;
55575;SDS011;41437;45.478;9.116;2022-10-16T10:00:36;61.08;;;38.67;;
55575;SDS011;41437;45.478;9.116;2022-10-16T10:03:43;67.82;;;43.80;;
55575;SDS011;41437;45.478;9.116;2022-10-16T10:06:46;64.80;;;40.28;;
55575;SDS011;41437;45.478;9.116;2022-10-16T10:09:51;60.40;;;39.95;;
55575;SDS011;41437;45.478;9.116;2022-10-16T10:12:54;65.60;;;41.05;;
55575;SDS011;41437;45.478;9.116;2022-10-16T10:15:57;65.37;;;41.60;;
55575;SDS011;41437;45.478;9.116;2022-10-16T10:18:59;71.50;;;44.13;;
55575;SDS011;41437;45.478;9.116;2022-10-16T10:22:01;65.03;;;42.20;;
55575;SDS011;41437;45.478;9.116;2022-10-16T10:25:14;71.45;;;44.17;;
55575;SDS011;41437;45.478;9.116;2022-10-16T10:31:49;68.38;;;40.40;;
55575;SDS011;41437;45.478;9.116;2022-10-16T10:35:05;60.15;;;38.28;;
55575;SDS011;41437;45.478;9.116;2022-10-16T10:38:25;65.68;;;43.22;;
55575;SDS011;41437;45.478;9.116;2022-10-16T10:41:40;70.68;;;44.25;;
55575;SDS011;41437;45.478;9.116;2022-10-16T10:45:13;74.68;;;45.80;;
55575;SDS011;41437;45.478;9.116;2022-10-16T10:48:22;70.50;;;45.13;;
55575;SDS011;41437;45.478;9.116;2022-10-16T10:51:35;59.40;;;40.22;;
55575;SDS011;41437;45.478;9.116;2022-10-16T10:54:48;75.67;;;47.80;;
55575;SDS011;41437;45.478;9.116;2022-10-16T10:58:06;75.90;;;45.72;;
55575;SDS011;41437;45.478;9.116;2022-10-16T11:01:26;71.47;;;45.75;;
55575;SDS011;41437;45.478;9.116;2022-10-16T11:04:43;80.35;;;47.50;;
55575;SDS011;41437;45.478;9.116;2022-10-16T11:08:00;70.07;;;45.67;;
55575;SDS011;41437;45.478;9.116;2022-10-16T11:11:06;73.00;;;45.47;;
55575;SDS011;41437;45.478;9.116;2022-10-16T11:14:14;73.82;;;45.03;;
55575;SDS011;41437;45.478;9.116;2022-10-16T11:17:18;69.47;;;43.50;;
55575;SDS011;41437;45.478;9.116;2022-10-16T11:20:25;75.60;;;45.20;;
55575;SDS011;41437;45.478;9.116;2022-10-16T11:23:31;68.95;;;43.95;;
55575;SDS011;41437;45.478;9.116;2022-10-16T11:26:41;70.60;;;44.83;;
55575;SDS011;41437;45.478;9.116;2022-10-16T11:29:49;78.20;;;47.15;;
55575;SDS011;41437;45.478;9.116;2022-10-16T11:33:10;70.75;;;46.15;;
55575;SDS011;41437;45.478;9.116;2022-10-16T11:36:25;68.10;;;42.42;;
55575;SDS011;41437;45.478;9.116;2022-10-16T11:39:32;71.30;;;45.70;;
55575;SDS011;41437;45.478;9.116;2022-10-16T11:42:36;72.10;;;44.78;;
55575;SDS011;41437;45.478;9.116;2022-10-16T11:45:43;73.95;;;46.38;;
55575;SDS011;41437;45.478;9.116;2022-10-16T11:48:48;72.25;;;45.58;;
55575;SDS011;41437;45.478;9.116;2022-10-16T11:51:56;74.10;;;46.53;;
55575;SDS011;41437;45.478;9.116;2022-10-16T11:55:12;66.28;;;43.53;;
55575;SDS011;41437;45.478;9.116;2022-10-16T11:58:20;73.55;;;47.13;;
55575;SDS011;41437;45.478;9.116;2022-10-16T12:01:33;71.32;;;45.20;;
55575;SDS011;41437;45.478;9.116;2022-10-16T12:04:42;70.15;;;45.03;;
55575;SDS011;41437;45.478;9.116;2022-10-16T12:07:51;71.32;;;46.88;;
55575;SDS011;41437;45.478;9.116;2022-10-16T12:11:06;71.65;;;44.40;;
55575;SDS011;41437;45.478;9.116;2022-10-16T12:14:20;70.82;;;48.70;;
55575;SDS011;41437;45.478;9.116;2022-10-16T12:17:38;76.40;;;48.20;;
55575;SDS011;41437;45.478;9.116;2022-10-16T12:23:46;79.93;;;48.80;;
55575;SDS011;41437;45.478;9.116;2022-10-16T12:26:50;83.32;;;51.22;;
55575;SDS011;41437;45.478;9.116;2022-10-16T12:29:54;84.38;;;50.03;;
55575;SDS011;41437;45.478;9.116;2022-10-16T12:32:59;75.68;;;47.78;;
55575;SDS011;41437;45.478;9.116;2022-10-16T12:36:03;77.07;;;47.08;;
55575;SDS011;41437;45.478;9.116;2022-10-16T12:39:16;75.35;;;46.33;;
55575;SDS011;41437;45.478;9.116;2022-10-16T12:42:23;74.65;;;48.47;;
55575;SDS011;41437;45.478;9.116;2022-10-16T12:45:33;76.95;;;49.05;;
55575;SDS011;41437;45.478;9.116;2022-10-16T12:48:37;75.32;;;49.55;;
55575;SDS011;41437;45.478;9.116;2022-10-16T12:51:40;71.13;;;45.88;;
55575;SDS011;41437;45.478;9.116;2022-10-16T12:54:43;73.15;;;45.90;;
55575;SDS011;41437;45.478;9.116;2022-10-16T12:57:46;79.43;;;51.15;;
55575;SDS011;41437;45.478;9.116;2022-10-16T13:01:16;75.03;;;49.70;;
55575;SDS011;41437;45.478;9.116;2022-10-16T13:04:36;73.72;;;50.30;;
55575;SDS011;41437;45.478;9.116;2022-10-16T13:07:50;75.82;;;49.47;;
55575;SDS011;41437;45.478;9.116;2022-10-16T13:11:03;82.38;;;50.88;;
55575;SDS011;41437;45.478;9.116;2022-10-16T13:14:20;86.35;;;53.13;;
55575;SDS011;41437;45.478;9.116;2022-10-16T13:17:36;72.80;;;47.90;;
55575;SDS011;41437;45.478;9.116;2022-10-16T13:20:51;80.97;;;50.45;;
55575;SDS011;41437;45.478;9.116;2022-10-16T13:24:02;76.85;;;49.67;;
55575;SDS011;41437;45.478;9.116;2022-10-16T13:27:14;73.95;;;48.42;;
55575;SDS011;41437;45.478;9.116;2022-10-16T13:30:26;74.40;;;45.97;;
55575;SDS011;41437;45.478;9.116;2022-10-16T13:33:31;70.55;;;45.95;;
55575;SDS011;41437;45.478;9.116;2022-10-16T13:36:42;70.28;;;47.70;;
55575;SDS011;41437;45.478;9.116;2022-10-16T13:39:45;70.70;;;45.08;;
55575;SDS011;41437;45.478;9.116;2022-10-16T13:42:47;70.17;;;44.43;;
55575;SDS011;41437;45.478;9.116;2022-10-16T13:45:54;69.20;;;47.03;;
55575;SDS011;41437;45.478;9.116;2022-10-16T13:48:57;67.53;;;47.28;;
55575;SDS011;41437;45.478;9.116;2022-10-16T13:52:00;65.93;;;44.60;;
55575;SDS011;41437;45.478;9.116;2022-10-16T13:55:02;68.55;;;45.30;;
55575;SDS011;41437;45.478;9.116;2022-10-16T13:58:05;63.45;;;41.17;;
55575;SDS011;41437;45.478;9.116;2022-10-16T14:01:15;60.30;;;41.15;;
55575;SDS011;41437;45.478;9.116;2022-10-16T14:04:19;60.28;;;41.42;;
55575;SDS011;41437;45.478;9.116;2022-10-16T14:07:24;58.47;;;39.28;;
55575;SDS011;41437;45.478;9.116;2022-10-16T14:10:28;67.95;;;44.10;;
55575;SDS011;41437;45.478;9.116;2022-10-16T14:13:34;63.25;;;41.63;;
55575;SDS011;41437;45.478;9.116;2022-10-16T14:16:40;63.80;;;41.90;;
55575;SDS011;41437;45.478;9.116;2022-10-16T14:19:45;54.65;;;37.40;;
55575;SDS011;41437;45.478;9.116;2022-10-16T14:22:57;58.63;;;39.85;;
55575;SDS011;41437;45.478;9.116;2022-10-16T14:26:14;55.65;;;37.15;;
55575;SDS011;41437;45.478;9.116;2022-10-16T14:29:19;62.58;;;39.63;;
55575;SDS011;41437;45.478;9.116;2022-10-16T14:32:22;57.72;;;38.22;;
55575;SDS011;41437;45.478;9.116;2022-10-16T14:35:27;59.58;;;37.63;;
55575;SDS011;41437;45.478;9.116;2022-10-16T14:38:32;55.22;;;38.42;;
55575;SDS011;41437;45.478;9.116;2022-10-16T14:41:40;55.47;;;35.80;;
55575;SDS011;41437;45.478;9.116;2022-10-16T14:44:46;56.72;;;38.38;;
55575;SDS011;41437;45.478;9.116;2022-10-16T14:47:49;51.78;;;35.13;;
55575;SDS011;41437;45.478;9.116;2022-10-16T14:50:53;56.28;;;36.78;;
55575;SDS011;41437;45.478;9.116;2022-10-16T14:53:56;66.55;;;41.95;;
55575;SDS011;41437;45.478;9.116;2022-10-16T14:56:58;56.67;;;38.20;;
55575;SDS011;41437;45.478;9.116;2022-10-16T15:00:00;62.78;;;44.13;;
55575;SDS011;41437;45.478;9.116;2022-10-16T15:03:02;57.65;;;37.50;;
55575;SDS011;41437;45.478;9.116;2022-10-16T15:06:04;63.85;;;42.42;;
55575;SDS011;41437;45.478;9.116;2022-10-16T15:09:13;60.85;;;40.75;;
55575;SDS011;41437;45.478;9.116;2022-10-16T15:12:15;62.92;;;42.00;;
55575;SDS011;41437;45.478;9.116;2022-10-16T15:15:28;57.65;;;40.65;;
55575;SDS011;41437;45.478;9.116;2022-10-16T15:18:34;62.67;;;42.78;;
55575;SDS011;41437;45.478;9.116;2022-10-16T15:21:36;59.58;;;41.63;;
55575;SDS011;41437;45.478;9.116;2022-10-16T15:24:39;61.10;;;42.53;;
55575;SDS011;41437;45.478;9.116;2022-10-16T15:27:41;60.97;;;40.08;;
55575;SDS011;41437;45.478;9.116;2022-10-16T15:30:43;54.65;;;39.03;;
55575;SDS011;41437;45.478;9.116;2022-10-16T15:33:46;54.92;;;37.88;;
55575;SDS011;41437;45.478;9.116;2022-10-16T15:36:53;53.15;;;35.13;;
55575;SDS011;41437;45.478;9.116;2022-10-16T15:42:59;53.28;;;35.25;;
55575;SDS011;41437;45.478;9.116;2022-10-16T15:46:02;53.10;;;37.42;;
55575;SDS011;41437;45.478;9.116;2022-10-16T15:49:06;55.38;;;36.42;;
55575;SDS011;41437;45.478;9.116;2022-10-16T15:52:08;58.13;;;38.33;;
55575;SDS011;41437;45.478;9.116;2022-10-16T15:55:11;55.85;;;36.05;;
55575;SDS011;41437;45.478;9.116;2022-10-16T15:58:15;51.17;;;35.83;;
55575;SDS011;41437;45.478;9.116;2022-10-16T16:01:17;53.92;;;36.80;;
55575;SDS011;41437;45.478;9.116;2022-10-16T16:04:20;47.33;;;34.15;;
55575;SDS011;41437;45.478;9.116;2022-10-16T16:07:22;56.90;;;39.22;;
55575;SDS011;41437;45.478;9.116;2022-10-16T16:10:25;63.40;;;40.78;;
55575;SDS011;41437;45.478;9.116;2022-10-16T16:13:26;67.88;;;43.08;;
55575;SDS011;41437;45.478;9.116;2022-10-16T16:16:28;61.92;;;41.35;;
55575;SDS011;41437;45.478;9.116;2022-10-16T16:19:30;59.13;;;40.40;;
55575;SDS011;41437;45.478;9.116;2022-10-16T16:22:32;68.05;;;44.15;;
55575;SDS011;41437;45.478;9.116;2022-10-16T16:25:35;63.10;;;43.33;;
55575;SDS011;41437;45.478;9.116;2022-10-16T16:28:36;69.45;;;47.17;;
55575;SDS011;41437;45.478;9.116;2022-10-16T16:31:39;69.70;;;47.03;;
55575;SDS011;41437;45.478;9.116;2022-10-16T16:34:41;74.07;;;48.10;;
55575;SDS011;41437;45.478;9.116;2022-10-16T16:37:43;67.57;;;47.03;;
55575;SDS011;41437;45.478;9.116;2022-10-16T16:40:46;62.22;;;43.17;;
55575;SDS011;41437;45.478;9.116;2022-10-16T16:43:48;69.30;;;44.35;;
55575;SDS011;41437;45.478;9.116;2022-10-16T16:46:51;71.43;;;47.05;;
55575;SDS011;41437;45.478;9.116;2022-10-16T16:49:52;69.28;;;45.60;;
55575;SDS011;41437;45.478;9.116;2022-10-16T16:52:54;71.10;;;46.88;;
55575;SDS011;41437;45.478;9.116;2022-10-16T16:56:01;65.53;;;45.35;;
55575;SDS011;41437;45.478;9.116;2022-10-16T16:59:03;70.45;;;44.88;;
55575;SDS011;41437;45.478;9.116;2022-10-16T17:02:05;67.32;;;44.17;;
55575;SDS011;41437;45.478;9.116;2022-10-16T17:05:07;64.20;;;43.25;;
55575;SDS011;41437;45.478;9.116;2022-10-16T17:08:09;68.35;;;45.20;;
55575;SDS011;41437;45.478;9.116;2022-10-16T17:11:13;67.55;;;43.60;;
55575;SDS011;41437;45.478;9.116;2022-10-16T17:14:17;65.30;;;42.72;;
55575;SDS011;41437;45.478;9.116;2022-10-16T17:17:18;69.28;;;45.58;;
55575;SDS011;41437;45.478;9.116;2022-10-16T17:20:20;74.50;;;47.63;;
55575;SDS011;41437;45.478;9.116;2022-10-16T17:23:22;74.82;;;47.42;;
55575;SDS011;41437;45.478;9.116;2022-10-16T17:26:25;71.82;;;46.15;;
55575;SDS011;41437;45.478;9.116;2022-10-16T17:32:28;79.18;;;47.47;;
55575;SDS011;41437;45.478;9.116;2022-10-16T17:35:35;75.13;;;48.22;;
55575;SDS011;41437;45.478;9.116;2022-10-16T17:38:37;80.18;;;50.03;;
55575;SDS011;41437;45.478;9.116;2022-10-16T17:41:40;80.22;;;53.17;;
55575;SDS011;41437;45.478;9.116;2022-10-16T17:44:42;88.88;;;58.17;;
55575;SDS011;41437;45.478;9.116;2022-10-16T17:47:44;84.13;;;52.03;;
55575;SDS011;41437;45.478;9.116;2022-10-16T17:50:45;82.57;;;53.08;;
55575;SDS011;41437;45.478;9.116;2022-10-16T17:53:47;78.35;;;50.67;;
55575;SDS011;41437;45.478;9.116;2022-10-16T17:56:50;75.88;;;48.42;;
55575;SDS011;41437;45.478;9.116;2022-10-16T17:59:53;65.07;;;43.33;;
55575;SDS011;41437;45.478;9.116;2022-10-16T18:02:54;75.90;;;47.97;;
55575;SDS011;41437;45.478;9.116;2022-10-16T18:05:56;75.85;;;49.28;;
55575;SDS011;41437;45.478;9.116;2022-10-16T18:08:58;71.63;;;46.38;;
55575;SDS011;41437;45.478;9.116;2022-10-16T18:12:02;76.20;;;48.35;;
55575;SDS011;41437;45.478;9.116;2022-10-16T18:15:04;81.78;;;51.53;;
55575;SDS011;41437;45.478;9.116;2022-10-16T18:18:06;73.40;;;49.28;;
55575;SDS011;41437;45.478;9.116;2022-10-16T18:21:10;69.43;;;45.15;;
55575;SDS011;41437;45.478;9.116;2022-10-16T18:24:13;68.35;;;45.05;;
55575;SDS011;41437;45.478;9.116;2022-10-16T18:27:16;69.32;;;45.75;;
55575;SDS011;41437;45.478;9.116;2022-10-16T18:30:17;71.22;;;46.13;;